createdAt,value
2023-04-21T00:02:21.935Z,99.90
2023-04-21T00:04:50.085Z,99.90
2023-04-21T00:07:17.277Z,99.90
2023-04-21T00:09:47.453Z,99.90
2023-04-21T00:12:16.800Z,99.90
2023-04-21T00:14:43.782Z,99.90
2023-04-21T00:17:11.034Z,99.90
2023-04-21T00:19:40.138Z,99.90
2023-04-21T00:22:12.199Z,99.90
2023-04-21T00:24:39.169Z,99.90
2023-04-21T00:27:06.237Z,99.90
2023-04-21T00:29:33.439Z,99.90
2023-04-21T00:32:02.025Z,99.90
2023-04-21T00:34:29.020Z,99.90
2023-04-21T00:36:56.148Z,99.90
2023-04-21T00:39:23.101Z,99.90
2023-04-21T00:41:50.087Z,99.90
2023-04-21T00:44:17.208Z,99.90
2023-04-21T00:46:44.339Z,99.90
2023-04-21T00:49:13.318Z,99.90
2023-04-21T00:51:40.946Z,99.90
2023-04-21T00:54:09.316Z,99.90
2023-04-21T00:56:36.866Z,99.90
2023-04-21T00:59:04.421Z,99.90
2023-04-21T01:01:32.836Z,99.90
2023-04-21T01:04:01.183Z,99.90
2023-04-21T01:06:29.917Z,99.90
2023-04-21T01:08:56.945Z,99.90
2023-04-21T01:11:23.922Z,99.90
2023-04-21T01:13:54.809Z,99.90
2023-04-21T01:16:24.047Z,99.90
2023-04-21T01:18:53.449Z,99.90
2023-04-21T01:21:21.753Z,99.90
2023-04-21T01:23:48.854Z,99.90
2023-04-21T01:26:19.484Z,99.90
2023-04-21T01:28:48.979Z,99.90
2023-04-21T01:31:16.691Z,99.90
2023-04-21T01:33:44.206Z,99.90
2023-04-21T01:36:11.658Z,99.90
2023-04-21T01:38:42.604Z,99.90
2023-04-21T01:41:10.945Z,99.90
2023-04-21T01:43:38.563Z,99.90
2023-04-21T01:46:06.677Z,99.90
2023-04-21T01:48:33.684Z,99.90
2023-04-21T01:51:00.873Z,99.90
2023-04-21T01:53:27.915Z,99.90
2023-04-21T01:55:54.852Z,99.90
2023-04-21T01:58:22.425Z,99.90
2023-04-21T02:00:49.624Z,99.90
2023-04-21T02:03:16.733Z,99.90
2023-04-21T02:05:43.905Z,99.90
2023-04-21T02:08:11.055Z,99.90
2023-04-21T02:10:38.108Z,99.90
2023-04-21T02:13:05.196Z,99.90
2023-04-21T02:15:32.266Z,99.90
2023-04-21T02:17:59.345Z,99.90
2023-04-21T02:20:26.553Z,99.90
2023-04-21T02:22:53.668Z,99.90
2023-04-21T02:25:20.696Z,99.90
2023-04-21T02:27:50.844Z,99.90
2023-04-21T02:30:20.850Z,99.90
2023-04-21T02:32:47.941Z,99.90
2023-04-21T02:35:15.354Z,99.90
2023-04-21T02:37:42.317Z,99.90
2023-04-21T02:40:10.572Z,99.90
2023-04-21T02:42:37.635Z,99.90
2023-04-21T02:45:04.948Z,99.90
2023-04-21T02:47:32.011Z,99.90
2023-04-21T02:49:59.163Z,99.90
2023-04-21T02:52:26.836Z,99.90
2023-04-21T02:54:53.987Z,99.90
2023-04-21T02:57:21.051Z,99.90
2023-04-21T02:59:48.064Z,99.90
2023-04-21T03:02:15.114Z,99.90
2023-04-21T03:04:42.349Z,99.90
2023-04-21T03:07:13.783Z,99.90
2023-04-21T03:09:41.314Z,99.90
2023-04-21T03:12:08.392Z,99.90
2023-04-21T03:14:35.440Z,99.90
2023-04-21T03:17:02.415Z,99.90
2023-04-21T03:19:29.989Z,99.90
2023-04-21T03:21:57.089Z,99.90
2023-04-21T03:24:24.162Z,99.90
2023-04-21T03:26:51.511Z,99.90
2023-04-21T03:29:18.733Z,99.90
2023-04-21T03:31:46.080Z,99.90
2023-04-21T03:34:13.111Z,99.90
2023-04-21T03:36:40.105Z,99.90
2023-04-21T03:39:19.098Z,99.90
2023-04-21T03:41:47.105Z,99.90
2023-04-21T03:44:14.280Z,99.90
2023-04-21T03:46:41.299Z,99.90
2023-04-21T03:49:08.388Z,99.90
2023-04-21T03:51:35.314Z,99.90
2023-04-21T03:54:02.227Z,99.90
2023-04-21T03:56:29.826Z,99.90
2023-04-21T03:58:57.104Z,99.90
2023-04-21T04:01:24.059Z,99.90
2023-04-21T04:03:51.414Z,99.90
2023-04-21T04:06:18.601Z,99.90
2023-04-21T04:08:45.683Z,99.90
2023-04-21T04:11:12.806Z,99.90
2023-04-21T04:13:39.781Z,99.90
2023-04-21T04:16:07.256Z,99.90
2023-04-21T04:18:34.508Z,99.90
2023-04-21T04:21:07.468Z,99.90
2023-04-21T04:23:35.163Z,99.90
2023-04-21T04:26:05.756Z,99.90
2023-04-21T04:28:33.812Z,99.90
2023-04-21T04:31:01.074Z,99.90
2023-04-21T04:33:28.195Z,99.90
2023-04-21T04:35:55.468Z,99.90
2023-04-21T04:38:23.399Z,99.90
2023-04-21T04:40:58.069Z,99.90
2023-04-21T04:43:29.368Z,99.90
2023-04-21T04:45:56.328Z,99.90
2023-04-21T04:48:24.573Z,99.90
2023-04-21T04:50:51.864Z,99.90
2023-04-21T04:53:18.790Z,99.90
2023-04-21T04:55:47.384Z,99.90
2023-04-21T04:58:15.051Z,99.90
2023-04-21T05:00:42.028Z,99.90
2023-04-21T05:03:09.336Z,99.90
2023-04-21T05:05:36.448Z,99.90
2023-04-21T05:08:03.431Z,99.90
2023-04-21T05:10:30.603Z,99.90
2023-04-21T05:12:57.657Z,99.90
2023-04-21T05:15:24.679Z,99.90
2023-04-21T05:17:51.708Z,99.90
2023-04-21T05:20:18.771Z,99.90
2023-04-21T05:22:45.843Z,99.90
2023-04-21T05:25:16.180Z,99.90
2023-04-21T05:27:43.496Z,99.90
2023-04-21T05:30:10.836Z,99.90
2023-04-21T05:32:38.108Z,99.90
2023-04-21T05:35:05.485Z,99.90
2023-04-21T05:37:32.524Z,99.90
2023-04-21T05:39:59.637Z,99.90
2023-04-21T05:42:26.694Z,99.90
2023-04-21T05:44:54.286Z,99.90
2023-04-21T05:47:21.505Z,99.90
2023-04-21T05:49:52.638Z,99.90
2023-04-21T05:52:23.008Z,99.90
2023-04-21T05:54:59.520Z,99.90
2023-04-21T05:57:26.855Z,99.90
2023-04-21T05:59:53.772Z,99.90
2023-04-21T06:02:21.035Z,99.90
2023-04-21T06:04:48.351Z,99.90
2023-04-21T06:07:17.488Z,99.90
2023-04-21T06:09:51.536Z,99.90
2023-04-21T06:12:18.503Z,99.90
2023-04-21T06:14:45.493Z,99.90
2023-04-21T06:17:17.401Z,99.90
2023-04-21T06:19:44.409Z,99.90
2023-04-21T06:22:11.386Z,99.90
2023-04-21T06:24:38.559Z,99.90
2023-04-21T06:27:11.475Z,99.90
2023-04-21T06:29:38.487Z,99.90
2023-04-21T06:32:06.781Z,99.90
2023-04-21T06:34:33.814Z,99.90
2023-04-21T06:37:01.158Z,99.90
2023-04-21T06:39:29.316Z,99.90
2023-04-21T06:41:58.144Z,99.90
2023-04-21T06:44:25.124Z,99.90
2023-04-21T06:46:52.422Z,99.90
2023-04-21T06:49:19.767Z,99.90
2023-04-21T06:51:47.087Z,99.90
2023-04-21T06:54:14.224Z,99.90
2023-04-21T06:56:43.001Z,99.90
2023-04-21T06:59:10.465Z,99.90
2023-04-21T07:01:38.041Z,99.90
2023-04-21T07:04:06.867Z,99.90
2023-04-21T07:06:33.962Z,99.90
2023-04-21T07:09:01.128Z,99.90
2023-04-21T07:11:28.780Z,99.90
2023-04-21T07:13:55.928Z,99.90
2023-04-21T07:16:24.744Z,99.90
2023-04-21T07:18:51.686Z,99.90
2023-04-21T07:21:18.688Z,99.90
2023-04-21T07:23:46.021Z,99.90
2023-04-21T07:26:13.317Z,99.90
2023-04-21T07:28:43.131Z,99.90
2023-04-21T07:31:10.490Z,99.90
2023-04-21T07:33:37.563Z,99.90
2023-04-21T07:36:04.797Z,99.90
2023-04-21T07:38:34.710Z,99.90
2023-04-21T07:41:03.123Z,99.90
2023-04-21T07:43:31.580Z,99.90
2023-04-21T07:45:59.021Z,99.90
2023-04-21T07:48:26.249Z,99.90
2023-04-21T07:50:53.474Z,99.90
2023-04-21T07:53:20.834Z,99.90
2023-04-21T07:55:47.798Z,99.90
2023-04-21T07:58:14.803Z,99.90
2023-04-21T08:00:42.233Z,99.90
2023-04-21T08:03:09.393Z,99.90
2023-04-21T08:05:40.195Z,99.90
2023-04-21T08:08:08.197Z,99.90
2023-04-21T08:10:35.237Z,99.90
2023-04-21T08:13:03.488Z,99.90
2023-04-21T08:15:30.508Z,99.90
2023-04-21T08:17:57.475Z,99.90
2023-04-21T08:20:24.574Z,99.80
2023-04-21T08:22:51.935Z,99.30
2023-04-21T08:25:19.040Z,98.70
2023-04-21T08:27:45.998Z,99.70
2023-04-21T08:30:13.464Z,99.80
2023-04-21T08:32:40.795Z,99.20
2023-04-21T08:35:08.209Z,99.90
2023-04-21T08:37:37.583Z,99.50
2023-04-21T08:40:07.523Z,99.70
2023-04-21T08:42:37.054Z,99.70
2023-04-21T08:45:05.112Z,99.90
2023-04-21T08:47:33.613Z,99.90
2023-04-21T08:50:00.839Z,98.90
2023-04-21T08:52:27.957Z,98.40
2023-04-21T08:54:56.573Z,97.70
2023-04-21T08:57:23.553Z,97.30
2023-04-21T08:59:51.001Z,98.10
2023-04-21T09:02:19.813Z,98.80
2023-04-21T09:04:48.987Z,99.10
2023-04-21T09:07:41.607Z,98.20
2023-04-21T09:10:09.008Z,98.30
2023-04-21T09:12:40.023Z,98.30
2023-04-21T09:15:10.235Z,98.50
2023-04-21T09:17:38.882Z,97.40
2023-04-21T09:20:19.810Z,97.20
2023-04-21T09:22:49.912Z,98.30
2023-04-21T09:25:19.471Z,98.80
2023-04-21T09:27:47.474Z,98.40
2023-04-21T09:30:19.716Z,98.00
2023-04-21T09:32:46.965Z,97.90
2023-04-21T09:35:14.048Z,98.20
2023-04-21T09:37:44.711Z,98.60
2023-04-21T09:40:17.928Z,98.80
2023-04-21T09:42:45.248Z,99.20
2023-04-21T09:47:47.542Z,98.90
2023-04-21T09:50:16.407Z,98.80
2023-04-21T09:52:51.033Z,98.70
2023-04-21T09:55:19.630Z,98.50
2023-04-21T09:57:48.719Z,98.50
2023-04-21T10:00:18.341Z,98.10
2023-04-21T10:02:49.165Z,97.90
2023-04-21T10:05:16.715Z,98.60
2023-04-21T10:07:47.544Z,98.80
2023-04-21T10:10:29.035Z,98.50
2023-04-21T10:12:56.703Z,98.70
2023-04-21T10:15:40.615Z,98.60
2023-04-21T10:18:17.980Z,98.10
2023-04-21T10:20:52.142Z,98.50
2023-04-21T10:23:28.421Z,98.70
2023-04-21T10:26:06.851Z,98.80
2023-04-21T10:29:12.228Z,99.10
2023-04-21T10:31:52.238Z,99.30
2023-04-21T10:34:28.899Z,99.20
2023-04-21T10:36:55.949Z,99.10
2023-04-21T10:39:53.524Z,99.00
2023-04-21T10:42:24.847Z,98.90
2023-04-21T10:44:58.125Z,98.70
2023-04-21T10:47:49.784Z,97.60
2023-04-21T10:50:20.546Z,97.00
2023-04-21T10:52:52.698Z,98.20
2023-04-21T10:55:21.183Z,98.60
2023-04-21T10:57:49.197Z,98.60
2023-04-21T11:00:23.674Z,98.30
2023-04-21T11:03:05.283Z,98.20
2023-04-21T11:05:42.928Z,97.50
2023-04-21T11:08:16.644Z,97.00
2023-04-21T11:10:57.056Z,96.40
2023-04-21T11:13:35.589Z,97.10
2023-04-21T11:16:14.733Z,97.10
2023-04-21T11:18:45.528Z,97.60
2023-04-21T11:21:12.978Z,97.80
2023-04-21T11:23:42.061Z,97.60
2023-04-21T11:26:09.307Z,97.70
2023-04-21T11:28:36.677Z,97.50
2023-04-21T11:31:05.113Z,97.00
2023-04-21T11:33:39.650Z,97.40
2023-04-21T11:36:07.819Z,96.80
2023-04-21T11:38:39.468Z,97.00
2023-04-21T11:41:06.768Z,97.00
2023-04-21T11:43:36.799Z,96.70
2023-04-21T11:46:18.365Z,97.10
2023-04-21T11:48:45.998Z,97.10
2023-04-21T11:51:22.136Z,96.80
2023-04-21T11:53:49.357Z,96.70
2023-04-21T11:56:22.546Z,96.20
2023-04-21T11:58:56.333Z,96.70
2023-04-21T12:01:26.982Z,96.10
2023-04-21T12:03:57.302Z,95.70
2023-04-21T12:06:28.809Z,95.20
2023-04-21T12:09:02.872Z,96.00
2023-04-21T12:11:31.529Z,95.80
2023-04-21T12:13:59.249Z,95.80
2023-04-21T12:16:27.769Z,95.40
2023-04-21T12:18:58.460Z,95.30
2023-04-21T12:21:31.341Z,95.40
2023-04-21T12:23:58.561Z,95.60
2023-04-21T12:26:25.631Z,95.40
2023-04-21T12:28:53.489Z,95.90
2023-04-21T12:31:20.565Z,95.60
2023-04-21T12:33:47.731Z,95.40
2023-04-21T12:36:14.803Z,95.40
2023-04-21T12:38:41.812Z,96.00
2023-04-21T12:41:08.920Z,96.30
2023-04-21T12:43:35.977Z,96.80
2023-04-21T12:46:03.107Z,96.70
2023-04-21T12:48:30.185Z,95.60
2023-04-21T12:50:57.204Z,94.90
2023-04-21T12:53:24.189Z,94.50
2023-04-21T12:56:03.499Z,94.20
2023-04-21T12:58:32.113Z,94.60
2023-04-21T13:00:59.312Z,95.30
2023-04-21T13:03:26.525Z,94.90
2023-04-21T13:05:53.797Z,94.30
2023-04-21T13:08:22.218Z,94.80
2023-04-21T13:10:49.214Z,95.10
2023-04-21T13:13:16.330Z,95.40
2023-04-21T13:15:43.413Z,94.70
2023-04-21T13:18:10.514Z,95.10
2023-04-21T13:20:37.523Z,95.60
2023-04-21T13:23:04.917Z,95.80
2023-04-21T13:25:32.936Z,95.90
2023-04-21T13:28:00.630Z,95.10
2023-04-21T13:30:27.754Z,95.00
2023-04-21T13:32:54.893Z,95.30
2023-04-21T13:35:30.475Z,95.30
2023-04-21T13:37:59.172Z,95.20
2023-04-21T13:40:27.596Z,94.40
2023-04-21T13:42:54.631Z,93.90
2023-04-21T13:45:21.756Z,94.20
2023-04-21T13:47:48.789Z,94.20
2023-04-21T13:50:16.000Z,94.50
2023-04-21T13:52:42.983Z,94.20
2023-04-21T13:55:11.358Z,93.80
2023-04-21T13:57:38.778Z,94.30
2023-04-21T14:00:06.717Z,94.20
2023-04-21T14:02:34.019Z,94.20
2023-04-21T14:05:01.525Z,94.20
2023-04-21T14:07:29.078Z,94.30
2023-04-21T14:09:56.211Z,94.60
2023-04-21T14:12:24.476Z,94.40
2023-04-21T14:14:51.557Z,94.40
2023-04-21T14:17:18.610Z,94.40
2023-04-21T14:19:45.851Z,94.20
2023-04-21T14:22:12.922Z,94.10
2023-04-21T14:24:55.394Z,93.90
2023-04-21T14:27:39.947Z,93.50
2023-04-21T14:30:30.868Z,93.70
2023-04-21T14:33:28.415Z,93.70
2023-04-21T14:35:56.247Z,93.60
2023-04-21T14:38:23.718Z,93.30
2023-04-21T14:41:13.528Z,93.20
2023-04-21T14:46:40.137Z,93.40
2023-04-21T14:49:07.453Z,93.00
2023-04-21T14:51:54.699Z,93.30
2023-04-21T14:59:34.932Z,92.90
2023-04-21T15:02:12.377Z,92.80
2023-04-21T15:04:44.647Z,92.80
2023-04-21T15:07:19.836Z,93.20
2023-04-21T15:09:51.064Z,93.20
2023-04-21T15:12:18.223Z,93.20
2023-04-21T15:14:45.195Z,93.10
2023-04-21T15:17:12.309Z,93.00
2023-04-21T15:19:39.463Z,92.90
2023-04-21T15:22:13.742Z,92.90
2023-04-21T15:24:59.587Z,93.30
2023-04-21T15:27:26.594Z,93.50
2023-04-21T15:29:53.890Z,93.20
2023-04-21T15:32:23.389Z,93.50
2023-04-21T15:34:50.523Z,93.80
2023-04-21T15:37:20.347Z,93.70
2023-04-21T15:39:47.827Z,93.90
2023-04-21T15:42:14.836Z,93.90
2023-04-21T15:44:41.923Z,94.30
2023-04-21T15:47:08.871Z,94.40
2023-04-21T15:49:36.111Z,94.60
2023-04-21T15:52:04.953Z,94.90
2023-04-21T15:54:34.262Z,96.00
2023-04-21T15:57:05.702Z,96.60
2023-04-21T15:59:32.885Z,96.90
2023-04-21T16:01:59.979Z,97.00
2023-04-21T16:04:27.193Z,96.90
2023-04-21T16:06:54.602Z,97.40
2023-04-21T16:09:21.780Z,97.20
2023-04-21T16:11:52.314Z,97.10
2023-04-21T16:14:19.557Z,97.80
2023-04-21T16:16:46.760Z,97.80
2023-04-21T16:19:14.013Z,98.60
2023-04-21T16:21:42.507Z,99.30
2023-04-21T16:24:09.688Z,99.70
2023-04-21T16:26:39.915Z,99.90
2023-04-21T16:29:07.082Z,99.90
2023-04-21T16:31:34.105Z,99.90
2023-04-21T16:34:01.297Z,99.90
2023-04-21T16:36:34.008Z,99.90
2023-04-21T16:39:01.036Z,99.90
2023-04-21T16:41:28.083Z,99.90
2023-04-21T16:43:55.053Z,99.90
2023-04-21T16:46:22.333Z,99.90
2023-04-21T16:48:51.600Z,99.90
2023-04-21T16:51:18.678Z,99.90
2023-04-21T16:53:45.655Z,99.90
2023-04-21T16:56:15.774Z,99.90
2023-04-21T16:58:42.826Z,99.90
2023-04-21T17:01:09.868Z,99.90
2023-04-21T17:03:37.188Z,99.90
2023-04-21T17:06:10.911Z,99.90
2023-04-21T17:08:38.268Z,99.90
2023-04-21T17:11:05.373Z,99.90
2023-04-21T17:13:34.756Z,99.90
2023-04-21T17:16:01.995Z,99.90
2023-04-21T17:18:28.925Z,99.90
2023-04-21T17:20:56.169Z,99.90
2023-04-21T17:23:23.890Z,99.90
2023-04-21T17:25:51.121Z,99.90
2023-04-21T17:28:30.105Z,99.90
2023-04-21T17:31:07.626Z,99.90
2023-04-21T17:33:42.383Z,99.90
2023-04-21T17:36:09.528Z,99.90
2023-04-21T17:38:36.525Z,99.90
2023-04-21T17:41:06.744Z,99.90
2023-04-21T17:43:33.898Z,99.90
2023-04-21T17:46:04.207Z,99.90
2023-04-21T17:48:32.585Z,99.90
2023-04-21T17:51:00.163Z,99.90
2023-04-21T17:53:27.359Z,99.90
2023-04-21T17:55:54.358Z,99.90
2023-04-21T17:58:21.625Z,99.90
2023-04-21T18:00:48.786Z,99.90
2023-04-21T18:03:16.868Z,99.90
2023-04-21T18:05:44.795Z,99.90
2023-04-21T18:08:16.710Z,99.90
2023-04-21T18:10:47.442Z,99.90
2023-04-21T18:13:18.042Z,99.90
2023-04-21T18:15:45.086Z,99.90
2023-04-21T18:18:12.288Z,99.90
2023-04-21T18:20:44.649Z,99.90
2023-04-21T18:23:14.601Z,99.90
2023-04-21T18:25:43.193Z,99.90
2023-04-21T18:28:14.465Z,99.90
2023-04-21T18:30:44.371Z,99.90
2023-04-21T18:33:13.856Z,99.90
2023-04-21T18:35:46.787Z,99.90
2023-04-21T18:38:13.900Z,99.90
2023-04-21T18:40:41.757Z,99.90
2023-04-21T18:43:11.648Z,99.90
2023-04-21T18:45:41.328Z,99.90
2023-04-21T18:48:11.393Z,99.90
2023-04-21T18:50:44.596Z,99.90
2023-04-21T18:53:11.652Z,99.90
2023-04-21T18:55:38.776Z,99.90
2023-04-21T18:58:13.685Z,99.90
2023-04-21T19:00:46.877Z,99.90
2023-04-21T19:03:14.049Z,99.90
2023-04-21T19:05:41.234Z,99.90
2023-04-21T19:08:12.044Z,99.90
2023-04-21T19:10:39.196Z,99.90
2023-04-21T19:13:06.419Z,99.90
2023-04-21T19:15:33.502Z,99.90
2023-04-21T19:18:00.734Z,99.90
2023-04-21T19:20:29.334Z,99.90
2023-04-21T19:25:37.321Z,99.90
2023-04-21T19:28:06.598Z,99.90
2023-04-21T19:30:33.651Z,99.90
2023-04-21T19:33:00.957Z,99.90
2023-04-21T19:35:30.586Z,99.90
2023-04-21T19:37:57.943Z,99.90
2023-04-21T19:40:25.379Z,99.90
2023-04-21T19:42:52.463Z,99.90
2023-04-21T19:45:19.413Z,99.90
2023-04-21T19:47:46.840Z,99.90
2023-04-21T19:50:14.024Z,99.90
2023-04-21T19:52:45.750Z,99.90
2023-04-21T19:55:12.964Z,99.90
2023-04-21T19:57:40.203Z,99.90
2023-04-21T20:00:11.443Z,99.90
2023-04-21T20:02:42.391Z,99.90
2023-04-21T20:05:10.239Z,99.90
2023-04-21T20:07:37.844Z,99.90
2023-04-21T20:10:06.472Z,99.90
2023-04-21T20:12:34.261Z,99.90
2023-04-21T20:15:01.415Z,99.90
2023-04-21T20:17:29.259Z,99.90
2023-04-21T20:19:56.369Z,99.90
2023-04-21T20:22:23.602Z,99.90
2023-04-21T20:24:52.193Z,99.90
2023-04-21T20:27:19.176Z,99.90
2023-04-21T20:29:47.008Z,99.90
2023-04-21T20:32:16.404Z,99.90
2023-04-21T20:34:43.669Z,99.90
2023-04-21T20:37:13.502Z,99.90
2023-04-21T20:39:40.819Z,99.90
2023-04-21T20:42:13.096Z,99.90
2023-04-21T20:44:43.945Z,99.90
2023-04-21T20:47:12.078Z,99.90
2023-04-21T20:49:44.156Z,99.90
2023-04-21T20:52:12.629Z,99.90
2023-04-21T20:54:39.752Z,99.90
2023-04-21T20:57:07.770Z,99.90
2023-04-21T20:59:35.235Z,99.90
2023-04-21T21:02:02.539Z,99.90
2023-04-21T21:04:29.711Z,99.90
2023-04-21T21:06:56.776Z,99.90
2023-04-21T21:09:24.535Z,99.90
2023-04-21T21:11:51.483Z,99.90
2023-04-21T21:14:18.640Z,99.90
2023-04-21T21:16:45.846Z,99.90
2023-04-21T21:19:12.826Z,99.90
2023-04-21T21:21:39.930Z,99.90
2023-04-21T21:24:07.143Z,99.90
2023-04-21T21:26:37.503Z,99.90
2023-04-21T21:29:04.856Z,99.90
2023-04-21T21:31:31.918Z,99.90
2023-04-21T21:34:03.323Z,99.90
2023-04-21T21:36:34.975Z,99.90
2023-04-21T21:39:11.012Z,99.90
2023-04-21T21:41:38.477Z,99.90
2023-04-21T21:44:06.552Z,99.90
2023-04-21T21:46:33.661Z,99.90
2023-04-21T21:49:00.909Z,99.90
2023-04-21T21:51:28.989Z,99.90
2023-04-21T21:53:56.129Z,99.90
2023-04-21T21:56:24.348Z,99.90
2023-04-21T21:58:51.661Z,99.90
2023-04-21T22:01:18.715Z,99.90
2023-04-21T22:03:47.461Z,99.90
2023-04-21T22:06:17.712Z,99.90
2023-04-21T22:08:45.685Z,99.90
2023-04-21T22:11:12.817Z,99.90
2023-04-21T22:13:39.760Z,99.90
2023-04-21T22:16:07.137Z,99.90
2023-04-21T22:18:34.650Z,99.90
2023-04-21T22:21:02.022Z,99.90
2023-04-21T22:23:29.171Z,99.90
2023-04-21T22:25:56.492Z,99.90
2023-04-21T22:28:23.594Z,99.90
2023-04-21T22:30:50.841Z,99.90
2023-04-21T22:33:17.892Z,99.90
2023-04-21T22:35:44.919Z,99.90
2023-04-21T22:38:12.088Z,99.90
2023-04-21T22:40:39.153Z,99.90
2023-04-21T22:43:06.703Z,99.90
2023-04-21T22:45:33.957Z,99.90
2023-04-21T22:48:01.029Z,99.90
2023-04-21T22:50:28.012Z,99.90
2023-04-21T22:52:55.176Z,99.90
2023-04-21T22:55:22.267Z,99.90
2023-04-21T22:57:49.855Z,99.90
2023-04-21T23:00:17.279Z,99.90
2023-04-21T23:02:44.440Z,99.90
2023-04-21T23:05:11.647Z,99.90
2023-04-21T23:07:38.732Z,99.90
2023-04-21T23:10:06.253Z,99.90
2023-04-21T23:12:33.535Z,99.90
2023-04-21T23:15:00.578Z,99.90
2023-04-21T23:17:27.617Z,99.90
2023-04-21T23:19:55.419Z,99.90
2023-04-21T23:22:25.987Z,99.90
2023-04-21T23:24:53.306Z,99.90
2023-04-21T23:27:20.329Z,99.90
2023-04-21T23:29:47.480Z,99.90
2023-04-21T23:32:14.700Z,99.90
2023-04-21T23:34:41.840Z,99.90
2023-04-21T23:37:08.992Z,99.90
2023-04-21T23:39:36.251Z,99.90
2023-04-21T23:42:04.702Z,99.90
2023-04-21T23:44:31.829Z,99.90
2023-04-21T23:46:59.073Z,99.90
2023-04-21T23:49:26.006Z,99.90
2023-04-21T23:51:53.033Z,99.90
2023-04-21T23:54:20.123Z,99.90
2023-04-21T23:56:47.187Z,99.90
2023-04-21T23:59:14.337Z,99.90
